WBSB/BWN METAR and TAF weather

Enter ICAO airport designator
Station Type Date Time Source
WBSB METAR 2020/01/19 14:30 UTC NOAA

WBSB 191430Z 01004KT 9999 SCT015 SCT140 BKN300 28/25 Q1012 NOSIG


Station Type Date Time Source
WBSB Decoded METAR 2020/01/19 14:30 UTC NOAA

Brunei Airport, Brunei (WBSB) 04-56N 114-56E 15M
Jan 19, 2020 - 09:30 AM EST / 2020.01.19 1430 UTC
Wind: from the N (010 degrees) at 5 MPH (4 KT):0
Visibility: greater than 7 mile(s):0
Sky conditions: mostly cloudy
Temperature: 82 F (28 C)
Dew Point: 77 F (25 C)
Relative Humidity: 83%
Pressure (altimeter): 29.88 in. Hg (1012 hPa)
ob: WBSB 191430Z 01004KT 9999 SCT015 SCT140 BKN300 28/25 Q1012 NOSIG
cycle: 14

Station Type Date Time Source
WBSB TAF 2020/01/19 12:12 UTC NOAA

TAF WBSB 191100Z 1912/2018 02005KT 9999 SCT015 FEW016CB
TEMPO 1912/1916 7000 -SHRA
BECMG 1918/1920 16003KT SCT014 FEW015CB

Example: see airport list